Blanding, UT

8:55 PM MDT on September 04, 2015 (GMT -0600)
USU Eastern Blanding Campus | | Change Station
CLOSE
Current Station
Personal Weather Station
Location: Blanding, UT
Elevation: 6099 ft
Nearby Weather Stations

Elev 6099 ft 37.62 °N, 109.49 °W | Updated 12 seconds ago

Mostly Cloudy
Mostly Cloudy
63.3 °F
Feels Like 63.3 °F
N
4.9
Wind Variable Wind from SE
Gusts 9.0 mph

Today
High -- | Low -- °F
--% Chance of Precip.
Yesterday
High -- | Low -- °F
Precip. -- in
6:50 AM 7:42 PM
Waning Gibbous, 53% visible
Pressure 30.12 in
Visibility 10.0 miles
Clouds Clear
Dew Point 54 °F
Humidity 71%
Rainfall 0.23 in
Snow Depth Not available.
UV 0.0 out of 12
Pollen 6.70 out of 12
Air Quality Not available.
Flu Activity Not available.
METAR KBDG 050235Z AUTO 12010G20KT 10SM CLR 18/12 A3012 RMK AO1 T01840116
Pressure 30.12 in
Visibility 10.0 miles
Clouds Clear
Dew Point 54 °F
Humidity 71%
Rainfall 0.23 in
Snow Depth Not available.
UV 0.0 out of 12
Pollen 6.70 out of 12
Air Quality Not available.
Flu Activity Not available.
METAR KBDG 050235Z AUTO 12010G20KT 10SM CLR 18/12 A3012 RMK AO1 T01840116

10-Day Weather Forecast

×

Almanac

Astronomy

Sep. 04, 2015 Rise Set
Actual Time
Civil Twilight
Nautical Twilight
Astronomical Twilight
Moon
Length of Visible Light
Length of Day
Tomorrow will be .
, % of the Moon is Illuminated

Today's Extremes

State Highs State Lows

Community

WunderPhotos

Upload Photos

1,852,392 photos uploaded!

WunderBlogs® & News

Nearby

Air Quality

  Air Quality AQ Index Pollutant
Not available.

Snow Depth

Station Depth Elevation

Earthquake Activity

City Distance Mag. Time & Date
Minimum magnitude displayed is 2.5.

Coastal Water Temperatures

Place Temperature

Stations

Nearby Weather Stations

Station Location Temp. Windchill Dew Point Humidity Wind Precip. Elev Updated Type